sensor_id;sensor_type;location;lat;lon;timestamp;P1;durP1;ratioP1;P2;durP2;ratioP2
18445;SDS011;9352;50.888;4.466;2024-01-07T00:00:28;18.60;;;9.38;;
18445;SDS011;9352;50.888;4.466;2024-01-07T00:02:56;18.10;;;9.70;;
18445;SDS011;9352;50.888;4.466;2024-01-07T00:05:23;16.77;;;8.65;;
18445;SDS011;9352;50.888;4.466;2024-01-07T00:07:51;16.77;;;9.88;;
18445;SDS011;9352;50.888;4.466;2024-01-07T00:10:18;15.30;;;9.23;;
18445;SDS011;9352;50.888;4.466;2024-01-07T00:12:45;15.40;;;9.65;;
18445;SDS011;9352;50.888;4.466;2024-01-07T00:15:13;14.68;;;9.13;;
18445;SDS011;9352;50.888;4.466;2024-01-07T00:17:40;19.08;;;10.43;;
18445;SDS011;9352;50.888;4.466;2024-01-07T00:20:07;25.25;;;10.60;;
18445;SDS011;9352;50.888;4.466;2024-01-07T00:22:35;18.75;;;10.93;;
18445;SDS011;9352;50.888;4.466;2024-01-07T00:25:04;21.73;;;11.70;;
18445;SDS011;9352;50.888;4.466;2024-01-07T00:27:31;19.23;;;9.60;;
18445;SDS011;9352;50.888;4.466;2024-01-07T00:29:58;15.65;;;9.43;;
18445;SDS011;9352;50.888;4.466;2024-01-07T00:32:25;18.08;;;10.38;;
18445;SDS011;9352;50.888;4.466;2024-01-07T00:34:52;17.75;;;9.98;;
18445;SDS011;9352;50.888;4.466;2024-01-07T00:37:19;18.05;;;9.63;;
18445;SDS011;9352;50.888;4.466;2024-01-07T00:39:45;17.10;;;10.35;;
18445;SDS011;9352;50.888;4.466;2024-01-07T00:42:14;21.23;;;10.70;;
18445;SDS011;9352;50.888;4.466;2024-01-07T00:44:41;17.27;;;10.48;;
18445;SDS011;9352;50.888;4.466;2024-01-07T00:47:08;16.60;;;9.98;;
18445;SDS011;9352;50.888;4.466;2024-01-07T00:49:34;17.42;;;10.27;;
18445;SDS011;9352;50.888;4.466;2024-01-07T00:52:01;15.70;;;9.93;;
18445;SDS011;9352;50.888;4.466;2024-01-07T00:54:28;22.02;;;10.98;;
18445;SDS011;9352;50.888;4.466;2024-01-07T00:56:55;18.77;;;11.23;;
18445;SDS011;9352;50.888;4.466;2024-01-07T00:59:24;19.95;;;11.73;;
18445;SDS011;9352;50.888;4.466;2024-01-07T01:01:50;20.55;;;11.23;;
18445;SDS011;9352;50.888;4.466;2024-01-07T01:04:17;18.73;;;11.13;;
18445;SDS011;9352;50.888;4.466;2024-01-07T01:06:44;17.88;;;10.80;;
18445;SDS011;9352;50.888;4.466;2024-01-07T01:09:11;19.45;;;10.55;;
18445;SDS011;9352;50.888;4.466;2024-01-07T01:11:38;19.02;;;11.02;;
18445;SDS011;9352;50.888;4.466;2024-01-07T01:14:05;18.73;;;11.25;;
18445;SDS011;9352;50.888;4.466;2024-01-07T01:16:33;20.45;;;11.68;;
18445;SDS011;9352;50.888;4.466;2024-01-07T01:19:00;18.13;;;10.25;;
18445;SDS011;9352;50.888;4.466;2024-01-07T01:21:27;20.40;;;11.00;;
18445;SDS011;9352;50.888;4.466;2024-01-07T01:23:54;21.63;;;11.63;;
18445;SDS011;9352;50.888;4.466;2024-01-07T01:26:21;21.70;;;12.80;;
18445;SDS011;9352;50.888;4.466;2024-01-07T01:28:48;23.30;;;11.57;;
18445;SDS011;9352;50.888;4.466;2024-01-07T01:31:15;19.97;;;11.00;;
18445;SDS011;9352;50.888;4.466;2024-01-07T01:33:43;21.83;;;12.50;;
18445;SDS011;9352;50.888;4.466;2024-01-07T01:36:10;22.35;;;11.82;;
18445;SDS011;9352;50.888;4.466;2024-01-07T01:38:37;18.63;;;11.32;;
18445;SDS011;9352;50.888;4.466;2024-01-07T01:41:03;23.35;;;11.80;;
18445;SDS011;9352;50.888;4.466;2024-01-07T01:43:30;18.70;;;11.30;;
18445;SDS011;9352;50.888;4.466;2024-01-07T01:45:58;20.90;;;11.85;;
18445;SDS011;9352;50.888;4.466;2024-01-07T01:48:25;20.08;;;11.10;;
18445;SDS011;9352;50.888;4.466;2024-01-07T01:50:54;19.08;;;10.73;;
18445;SDS011;9352;50.888;4.466;2024-01-07T01:53:23;19.20;;;10.37;;
18445;SDS011;9352;50.888;4.466;2024-01-07T01:55:50;18.83;;;10.15;;
18445;SDS011;9352;50.888;4.466;2024-01-07T01:58:17;22.20;;;11.70;;
18445;SDS011;9352;50.888;4.466;2024-01-07T02:00:45;18.07;;;9.93;;
18445;SDS011;9352;50.888;4.466;2024-01-07T02:03:12;16.92;;;9.98;;
18445;SDS011;9352;50.888;4.466;2024-01-07T02:05:39;17.58;;;10.02;;
18445;SDS011;9352;50.888;4.466;2024-01-07T02:08:08;18.90;;;10.75;;
18445;SDS011;9352;50.888;4.466;2024-01-07T02:10:35;18.35;;;9.98;;
18445;SDS011;9352;50.888;4.466;2024-01-07T02:13:02;18.43;;;10.40;;
18445;SDS011;9352;50.888;4.466;2024-01-07T02:15:29;16.80;;;9.95;;
18445;SDS011;9352;50.888;4.466;2024-01-07T02:17:56;17.10;;;9.80;;
18445;SDS011;9352;50.888;4.466;2024-01-07T02:20:23;18.38;;;9.48;;
18445;SDS011;9352;50.888;4.466;2024-01-07T02:22:50;15.52;;;8.90;;
18445;SDS011;9352;50.888;4.466;2024-01-07T02:25:18;18.33;;;9.82;;
18445;SDS011;9352;50.888;4.466;2024-01-07T02:27:45;16.02;;;9.80;;
18445;SDS011;9352;50.888;4.466;2024-01-07T02:30:12;17.80;;;9.55;;
18445;SDS011;9352;50.888;4.466;2024-01-07T02:32:39;17.08;;;10.27;;
18445;SDS011;9352;50.888;4.466;2024-01-07T02:35:06;18.98;;;9.65;;
18445;SDS011;9352;50.888;4.466;2024-01-07T02:37:33;24.63;;;11.00;;
18445;SDS011;9352;50.888;4.466;2024-01-07T02:40:00;15.65;;;9.95;;
18445;SDS011;9352;50.888;4.466;2024-01-07T02:42:29;19.10;;;10.43;;
18445;SDS011;9352;50.888;4.466;2024-01-07T02:44:56;19.37;;;10.73;;
18445;SDS011;9352;50.888;4.466;2024-01-07T02:47:22;21.13;;;10.77;;
18445;SDS011;9352;50.888;4.466;2024-01-07T02:49:49;21.75;;;11.55;;
18445;SDS011;9352;50.888;4.466;2024-01-07T02:52:16;24.17;;;12.25;;
18445;SDS011;9352;50.888;4.466;2024-01-07T02:54:43;22.92;;;11.60;;
18445;SDS011;9352;50.888;4.466;2024-01-07T02:57:10;25.88;;;12.77;;
18445;SDS011;9352;50.888;4.466;2024-01-07T02:59:38;24.67;;;13.73;;
18445;SDS011;9352;50.888;4.466;2024-01-07T03:02:05;26.27;;;13.38;;
18445;SDS011;9352;50.888;4.466;2024-01-07T03:04:32;25.13;;;12.88;;
18445;SDS011;9352;50.888;4.466;2024-01-07T03:06:59;27.70;;;13.68;;
18445;SDS011;9352;50.888;4.466;2024-01-07T03:09:26;24.05;;;13.23;;
18445;SDS011;9352;50.888;4.466;2024-01-07T03:11:53;31.07;;;13.87;;
18445;SDS011;9352;50.888;4.466;2024-01-07T03:14:20;25.88;;;13.80;;
18445;SDS011;9352;50.888;4.466;2024-01-07T03:16:49;26.67;;;13.55;;
18445;SDS011;9352;50.888;4.466;2024-01-07T03:19:16;28.63;;;14.32;;
18445;SDS011;9352;50.888;4.466;2024-01-07T03:21:43;26.80;;;13.60;;
18445;SDS011;9352;50.888;4.466;2024-01-07T03:24:10;27.70;;;14.05;;
18445;SDS011;9352;50.888;4.466;2024-01-07T03:26:37;27.30;;;14.13;;
18445;SDS011;9352;50.888;4.466;2024-01-07T03:29:04;28.15;;;14.57;;
18445;SDS011;9352;50.888;4.466;2024-01-07T03:31:31;27.70;;;14.25;;
18445;SDS011;9352;50.888;4.466;2024-01-07T03:33:59;28.00;;;14.38;;
18445;SDS011;9352;50.888;4.466;2024-01-07T03:36:26;28.10;;;14.52;;
18445;SDS011;9352;50.888;4.466;2024-01-07T03:38:53;26.08;;;13.90;;
18445;SDS011;9352;50.888;4.466;2024-01-07T03:41:20;33.60;;;15.35;;
18445;SDS011;9352;50.888;4.466;2024-01-07T03:43:47;27.17;;;15.25;;
18445;SDS011;9352;50.888;4.466;2024-01-07T03:46:15;31.15;;;16.27;;
18445;SDS011;9352;50.888;4.466;2024-01-07T03:48:42;33.13;;;16.38;;
18445;SDS011;9352;50.888;4.466;2024-01-07T03:51:11;30.60;;;15.07;;
18445;SDS011;9352;50.888;4.466;2024-01-07T03:53:38;31.23;;;15.83;;
18445;SDS011;9352;50.888;4.466;2024-01-07T03:56:05;35.30;;;17.60;;
18445;SDS011;9352;50.888;4.466;2024-01-07T03:58:32;40.08;;;18.02;;
18445;SDS011;9352;50.888;4.466;2024-01-07T04:00:59;37.53;;;18.25;;
18445;SDS011;9352;50.888;4.466;2024-01-07T04:03:26;43.35;;;19.40;;
18445;SDS011;9352;50.888;4.466;2024-01-07T04:05:53;47.38;;;22.10;;
18445;SDS011;9352;50.888;4.466;2024-01-07T04:08:21;52.83;;;22.13;;
18445;SDS011;9352;50.888;4.466;2024-01-07T04:10:48;51.30;;;23.07;;
18445;SDS011;9352;50.888;4.466;2024-01-07T04:13:15;50.40;;;22.70;;
18445;SDS011;9352;50.888;4.466;2024-01-07T04:15:42;52.63;;;21.55;;
18445;SDS011;9352;50.888;4.466;2024-01-07T04:18:09;47.15;;;21.45;;
18445;SDS011;9352;50.888;4.466;2024-01-07T04:20:36;45.80;;;21.95;;
18445;SDS011;9352;50.888;4.466;2024-01-07T04:23:03;46.33;;;21.42;;
18445;SDS011;9352;50.888;4.466;2024-01-07T04:25:32;44.67;;;20.63;;
18445;SDS011;9352;50.888;4.466;2024-01-07T04:27:59;51.38;;;21.17;;
18445;SDS011;9352;50.888;4.466;2024-01-07T04:30:26;48.80;;;21.95;;
18445;SDS011;9352;50.888;4.466;2024-01-07T04:32:53;46.97;;;20.95;;
18445;SDS011;9352;50.888;4.466;2024-01-07T04:35:20;46.63;;;21.13;;
18445;SDS011;9352;50.888;4.466;2024-01-07T04:37:46;50.22;;;21.55;;
18445;SDS011;9352;50.888;4.466;2024-01-07T04:40:13;48.83;;;21.20;;
18445;SDS011;9352;50.888;4.466;2024-01-07T04:42:42;47.58;;;21.63;;
18445;SDS011;9352;50.888;4.466;2024-01-07T04:45:09;53.65;;;22.05;;
18445;SDS011;9352;50.888;4.466;2024-01-07T04:47:36;52.85;;;23.08;;
18445;SDS011;9352;50.888;4.466;2024-01-07T04:50:03;49.38;;;22.08;;
18445;SDS011;9352;50.888;4.466;2024-01-07T04:52:30;50.63;;;22.27;;
18445;SDS011;9352;50.888;4.466;2024-01-07T04:54:57;52.93;;;23.30;;
18445;SDS011;9352;50.888;4.466;2024-01-07T04:57:24;57.88;;;23.45;;
18445;SDS011;9352;50.888;4.466;2024-01-07T04:59:52;54.50;;;23.20;;
18445;SDS011;9352;50.888;4.466;2024-01-07T05:02:19;51.03;;;22.47;;
18445;SDS011;9352;50.888;4.466;2024-01-07T05:04:46;53.10;;;23.38;;
18445;SDS011;9352;50.888;4.466;2024-01-07T05:07:13;53.80;;;22.73;;
18445;SDS011;9352;50.888;4.466;2024-01-07T05:09:40;56.03;;;23.10;;
18445;SDS011;9352;50.888;4.466;2024-01-07T05:12:07;50.40;;;22.35;;
18445;SDS011;9352;50.888;4.466;2024-01-07T05:14:34;47.92;;;22.52;;
18445;SDS011;9352;50.888;4.466;2024-01-07T05:17:03;50.83;;;21.67;;
18445;SDS011;9352;50.888;4.466;2024-01-07T05:19:30;50.58;;;21.67;;
18445;SDS011;9352;50.888;4.466;2024-01-07T05:21:57;49.17;;;20.65;;
18445;SDS011;9352;50.888;4.466;2024-01-07T05:24:25;50.50;;;21.73;;
18445;SDS011;9352;50.888;4.466;2024-01-07T05:26:51;45.03;;;20.20;;
18445;SDS011;9352;50.888;4.466;2024-01-07T05:29:19;49.58;;;22.58;;
18445;SDS011;9352;50.888;4.466;2024-01-07T05:31:45;50.35;;;21.63;;
18445;SDS011;9352;50.888;4.466;2024-01-07T05:34:14;46.72;;;20.63;;
18445;SDS011;9352;50.888;4.466;2024-01-07T05:36:40;45.60;;;20.17;;
18445;SDS011;9352;50.888;4.466;2024-01-07T05:39:07;50.20;;;22.67;;
18445;SDS011;9352;50.888;4.466;2024-01-07T05:41:36;46.13;;;21.03;;
18445;SDS011;9352;50.888;4.466;2024-01-07T05:44:03;47.40;;;21.60;;
18445;SDS011;9352;50.888;4.466;2024-01-07T05:46:32;44.83;;;19.75;;
18445;SDS011;9352;50.888;4.466;2024-01-07T05:48:59;48.70;;;21.37;;
18445;SDS011;9352;50.888;4.466;2024-01-07T05:51:27;50.38;;;21.63;;
18445;SDS011;9352;50.888;4.466;2024-01-07T05:53:54;46.60;;;21.07;;
18445;SDS011;9352;50.888;4.466;2024-01-07T05:56:21;49.60;;;21.23;;
18445;SDS011;9352;50.888;4.466;2024-01-07T05:58:48;50.63;;;22.27;;
18445;SDS011;9352;50.888;4.466;2024-01-07T06:01:18;51.22;;;21.83;;
18445;SDS011;9352;50.888;4.466;2024-01-07T06:03:45;49.67;;;21.88;;
18445;SDS011;9352;50.888;4.466;2024-01-07T06:06:13;45.73;;;21.33;;
18445;SDS011;9352;50.888;4.466;2024-01-07T06:08:42;50.83;;;21.97;;
18445;SDS011;9352;50.888;4.466;2024-01-07T06:11:09;53.90;;;22.17;;
18445;SDS011;9352;50.888;4.466;2024-01-07T06:13:37;52.10;;;21.93;;
18445;SDS011;9352;50.888;4.466;2024-01-07T06:16:04;51.50;;;22.13;;
18445;SDS011;9352;50.888;4.466;2024-01-07T06:18:31;49.22;;;20.27;;
18445;SDS011;9352;50.888;4.466;2024-01-07T06:20:58;46.17;;;20.67;;
18445;SDS011;9352;50.888;4.466;2024-01-07T06:23:25;45.77;;;20.57;;
18445;SDS011;9352;50.888;4.466;2024-01-07T06:25:53;47.83;;;20.88;;
18445;SDS011;9352;50.888;4.466;2024-01-07T06:28:20;51.35;;;21.10;;
18445;SDS011;9352;50.888;4.466;2024-01-07T06:30:47;56.83;;;21.40;;
18445;SDS011;9352;50.888;4.466;2024-01-07T06:33:14;48.72;;;20.55;;
18445;SDS011;9352;50.888;4.466;2024-01-07T06:35:40;52.55;;;19.98;;
18445;SDS011;9352;50.888;4.466;2024-01-07T06:38:08;51.37;;;20.33;;
18445;SDS011;9352;50.888;4.466;2024-01-07T06:40:35;57.58;;;21.05;;
18445;SDS011;9352;50.888;4.466;2024-01-07T06:43:03;52.47;;;20.10;;
18445;SDS011;9352;50.888;4.466;2024-01-07T06:45:31;57.22;;;21.30;;
18445;SDS011;9352;50.888;4.466;2024-01-07T06:47:58;55.78;;;22.15;;
18445;SDS011;9352;50.888;4.466;2024-01-07T06:50:26;51.87;;;20.20;;
18445;SDS011;9352;50.888;4.466;2024-01-07T06:52:52;48.67;;;19.17;;
18445;SDS011;9352;50.888;4.466;2024-01-07T06:55:19;54.67;;;20.98;;
18445;SDS011;9352;50.888;4.466;2024-01-07T06:57:46;52.75;;;20.63;;
18445;SDS011;9352;50.888;4.466;2024-01-07T07:00:15;52.75;;;21.17;;
18445;SDS011;9352;50.888;4.466;2024-01-07T07:02:42;54.03;;;21.17;;
18445;SDS011;9352;50.888;4.466;2024-01-07T07:05:09;55.93;;;21.83;;
18445;SDS011;9352;50.888;4.466;2024-01-07T07:07:36;59.30;;;21.60;;
18445;SDS011;9352;50.888;4.466;2024-01-07T07:10:03;60.28;;;21.80;;
18445;SDS011;9352;50.888;4.466;2024-01-07T07:12:31;65.15;;;22.40;;
18445;SDS011;9352;50.888;4.466;2024-01-07T07:14:57;61.33;;;22.93;;
18445;SDS011;9352;50.888;4.466;2024-01-07T07:17:26;61.20;;;20.83;;
18445;SDS011;9352;50.888;4.466;2024-01-07T07:19:53;63.17;;;21.40;;
18445;SDS011;9352;50.888;4.466;2024-01-07T07:22:19;65.43;;;22.73;;
18445;SDS011;9352;50.888;4.466;2024-01-07T07:24:46;65.97;;;23.25;;
18445;SDS011;9352;50.888;4.466;2024-01-07T07:27:13;64.67;;;23.37;;
18445;SDS011;9352;50.888;4.466;2024-01-07T07:29:40;62.00;;;23.13;;
18445;SDS011;9352;50.888;4.466;2024-01-07T07:32:07;66.30;;;24.80;;
18445;SDS011;9352;50.888;4.466;2024-01-07T07:34:35;73.73;;;25.93;;
18445;SDS011;9352;50.888;4.466;2024-01-07T07:37:03;64.97;;;24.27;;
18445;SDS011;9352;50.888;4.466;2024-01-07T07:39:30;65.70;;;24.58;;
18445;SDS011;9352;50.888;4.466;2024-01-07T07:41:57;69.63;;;24.13;;
18445;SDS011;9352;50.888;4.466;2024-01-07T07:44:24;74.37;;;25.00;;
18445;SDS011;9352;50.888;4.466;2024-01-07T07:46:51;65.87;;;24.07;;
18445;SDS011;9352;50.888;4.466;2024-01-07T07:49:18;62.50;;;24.03;;
18445;SDS011;9352;50.888;4.466;2024-01-07T07:51:46;72.30;;;24.60;;
18445;SDS011;9352;50.888;4.466;2024-01-07T07:54:13;85.38;;;25.08;;
18445;SDS011;9352;50.888;4.466;2024-01-07T07:56:40;66.63;;;24.05;;
18445;SDS011;9352;50.888;4.466;2024-01-07T07:59:07;64.82;;;23.85;;
18445;SDS011;9352;50.888;4.466;2024-01-07T08:01:34;62.40;;;23.25;;
18445;SDS011;9352;50.888;4.466;2024-01-07T08:04:01;61.22;;;22.70;;
18445;SDS011;9352;50.888;4.466;2024-01-07T08:06:30;63.83;;;23.58;;
18445;SDS011;9352;50.888;4.466;2024-01-07T08:08:58;54.60;;;20.70;;
18445;SDS011;9352;50.888;4.466;2024-01-07T08:11:25;59.20;;;21.97;;
18445;SDS011;9352;50.888;4.466;2024-01-07T08:13:52;56.03;;;20.95;;
18445;SDS011;9352;50.888;4.466;2024-01-07T08:16:19;50.05;;;20.08;;
18445;SDS011;9352;50.888;4.466;2024-01-07T08:18:46;55.97;;;21.47;;
18445;SDS011;9352;50.888;4.466;2024-01-07T08:21:13;48.70;;;18.90;;
18445;SDS011;9352;50.888;4.466;2024-01-07T08:23:39;49.30;;;18.80;;
18445;SDS011;9352;50.888;4.466;2024-01-07T08:26:08;50.80;;;19.10;;
18445;SDS011;9352;50.888;4.466;2024-01-07T08:28:35;45.22;;;17.92;;
18445;SDS011;9352;50.888;4.466;2024-01-07T08:31:01;45.30;;;18.13;;
18445;SDS011;9352;50.888;4.466;2024-01-07T08:33:28;42.63;;;17.75;;
18445;SDS011;9352;50.888;4.466;2024-01-07T08:35:58;42.85;;;17.45;;
18445;SDS011;9352;50.888;4.466;2024-01-07T08:38:25;44.33;;;17.57;;
18445;SDS011;9352;50.888;4.466;2024-01-07T08:40:52;41.92;;;16.85;;
18445;SDS011;9352;50.888;4.466;2024-01-07T08:43:20;38.75;;;16.33;;
18445;SDS011;9352;50.888;4.466;2024-01-07T08:45:47;41.13;;;17.30;;
18445;SDS011;9352;50.888;4.466;2024-01-07T08:48:14;37.83;;;16.90;;
18445;SDS011;9352;50.888;4.466;2024-01-07T08:50:41;40.33;;;18.55;;
18445;SDS011;9352;50.888;4.466;2024-01-07T08:53:08;42.00;;;16.70;;
18445;SDS011;9352;50.888;4.466;2024-01-07T08:55:34;35.00;;;16.85;;
18445;SDS011;9352;50.888;4.466;2024-01-07T08:58:01;37.95;;;17.42;;
18445;SDS011;9352;50.888;4.466;2024-01-07T09:00:30;38.75;;;17.48;;
18445;SDS011;9352;50.888;4.466;2024-01-07T09:02:57;42.45;;;17.85;;
18445;SDS011;9352;50.888;4.466;2024-01-07T09:05:24;40.35;;;18.33;;
18445;SDS011;9352;50.888;4.466;2024-01-07T09:07:50;45.10;;;18.77;;
18445;SDS011;9352;50.888;4.466;2024-01-07T09:10:17;46.53;;;19.85;;
18445;SDS011;9352;50.888;4.466;2024-01-07T09:12:45;36.63;;;16.77;;
18445;SDS011;9352;50.888;4.466;2024-01-07T09:15:12;40.75;;;17.55;;
18445;SDS011;9352;50.888;4.466;2024-01-07T09:17:41;35.22;;;16.75;;
18445;SDS011;9352;50.888;4.466;2024-01-07T09:20:08;40.33;;;17.67;;
18445;SDS011;9352;50.888;4.466;2024-01-07T09:22:36;39.92;;;18.50;;
18445;SDS011;9352;50.888;4.466;2024-01-07T09:25:03;45.95;;;18.90;;
18445;SDS011;9352;50.888;4.466;2024-01-07T09:27:31;83.25;;;26.23;;
18445;SDS011;9352;50.888;4.466;2024-01-07T09:29:59;64.20;;;22.83;;
18445;SDS011;9352;50.888;4.466;2024-01-07T09:32:26;71.25;;;23.20;;
18445;SDS011;9352;50.888;4.466;2024-01-07T09:34:54;91.73;;;27.80;;
18445;SDS011;9352;50.888;4.466;2024-01-07T09:37:21;90.13;;;27.50;;
18445;SDS011;9352;50.888;4.466;2024-01-07T09:39:48;62.03;;;23.10;;
18445;SDS011;9352;50.888;4.466;2024-01-07T09:42:15;61.83;;;23.05;;
18445;SDS011;9352;50.888;4.466;2024-01-07T09:44:43;69.35;;;23.92;;
18445;SDS011;9352;50.888;4.466;2024-01-07T09:47:11;117.32;;;33.47;;
18445;SDS011;9352;50.888;4.466;2024-01-07T09:49:39;50.88;;;21.05;;
18445;SDS011;9352;50.888;4.466;2024-01-07T09:52:08;47.75;;;21.50;;
18445;SDS011;9352;50.888;4.466;2024-01-07T09:54:36;41.58;;;20.15;;
18445;SDS011;9352;50.888;4.466;2024-01-07T09:57:04;35.93;;;17.20;;
18445;SDS011;9352;50.888;4.466;2024-01-07T09:59:32;38.53;;;18.70;;
18445;SDS011;9352;50.888;4.466;2024-01-07T10:01:59;36.10;;;18.20;;
18445;SDS011;9352;50.888;4.466;2024-01-07T10:04:27;37.08;;;18.73;;
18445;SDS011;9352;50.888;4.466;2024-01-07T10:06:54;48.85;;;22.08;;
18445;SDS011;9352;50.888;4.466;2024-01-07T10:09:23;41.13;;;19.10;;
18445;SDS011;9352;50.888;4.466;2024-01-07T10:11:52;47.20;;;19.55;;
18445;SDS011;9352;50.888;4.466;2024-01-07T10:14:19;45.83;;;20.13;;
18445;SDS011;9352;50.888;4.466;2024-01-07T10:16:47;42.65;;;18.88;;
18445;SDS011;9352;50.888;4.466;2024-01-07T10:19:18;43.30;;;19.45;;
18445;SDS011;9352;50.888;4.466;2024-01-07T10:21:48;42.72;;;18.40;;
18445;SDS011;9352;50.888;4.466;2024-01-07T10:24:27;34.90;;;17.08;;
18445;SDS011;9352;50.888;4.466;2024-01-07T10:27:02;54.05;;;21.02;;
18445;SDS011;9352;50.888;4.466;2024-01-07T10:29:29;47.70;;;20.17;;
18445;SDS011;9352;50.888;4.466;2024-01-07T10:31:57;72.72;;;25.42;;
18445;SDS011;9352;50.888;4.466;2024-01-07T10:34:24;66.15;;;24.80;;
18445;SDS011;9352;50.888;4.466;2024-01-07T10:36:52;63.90;;;25.00;;
18445;SDS011;9352;50.888;4.466;2024-01-07T10:39:22;58.58;;;23.60;;
18445;SDS011;9352;50.888;4.466;2024-01-07T10:41:51;56.67;;;24.00;;
18445;SDS011;9352;50.888;4.466;2024-01-07T10:44:22;47.15;;;20.10;;
18445;SDS011;9352;50.888;4.466;2024-01-07T10:46:49;60.20;;;23.73;;
18445;SDS011;9352;50.888;4.466;2024-01-07T10:49:19;48.13;;;21.37;;
18445;SDS011;9352;50.888;4.466;2024-01-07T10:51:47;62.40;;;24.27;;
18445;SDS011;9352;50.888;4.466;2024-01-07T10:54:20;46.58;;;20.05;;
18445;SDS011;9352;50.888;4.466;2024-01-07T10:56:50;47.20;;;21.33;;
18445;SDS011;9352;50.888;4.466;2024-01-07T10:59:21;42.00;;;19.20;;
18445;SDS011;9352;50.888;4.466;2024-01-07T11:01:49;47.90;;;20.70;;
18445;SDS011;9352;50.888;4.466;2024-01-07T11:04:17;59.80;;;21.60;;
18445;SDS011;9352;50.888;4.466;2024-01-07T11:06:50;50.63;;;19.52;;
18445;SDS011;9352;50.888;4.466;2024-01-07T11:09:23;61.50;;;21.45;;
18445;SDS011;9352;50.888;4.466;2024-01-07T11:11:59;44.00;;;18.92;;
18445;SDS011;9352;50.888;4.466;2024-01-07T11:14:36;52.65;;;19.05;;
18445;SDS011;9352;50.888;4.466;2024-01-07T11:17:04;45.35;;;17.52;;
18445;SDS011;9352;50.888;4.466;2024-01-07T11:19:32;54.92;;;20.05;;
18445;SDS011;9352;50.888;4.466;2024-01-07T11:22:20;63.85;;;20.50;;
18445;SDS011;9352;50.888;4.466;2024-01-07T11:24:49;49.80;;;19.92;;
18445;SDS011;9352;50.888;4.466;2024-01-07T11:27:18;31.63;;;14.05;;
18445;SDS011;9352;50.888;4.466;2024-01-07T11:29:52;34.72;;;14.95;;
18445;SDS011;9352;50.888;4.466;2024-01-07T11:32:21;31.43;;;14.13;;
18445;SDS011;9352;50.888;4.466;2024-01-07T11:34:50;30.40;;;14.02;;
18445;SDS011;9352;50.888;4.466;2024-01-07T11:37:18;40.35;;;17.30;;
18445;SDS011;9352;50.888;4.466;2024-01-07T11:39:46;35.85;;;16.90;;
18445;SDS011;9352;50.888;4.466;2024-01-07T11:42:14;31.02;;;15.57;;
18445;SDS011;9352;50.888;4.466;2024-01-07T11:44:46;36.30;;;15.80;;
18445;SDS011;9352;50.888;4.466;2024-01-07T11:47:14;41.10;;;17.33;;
18445;SDS011;9352;50.888;4.466;2024-01-07T11:49:42;35.00;;;15.57;;
18445;SDS011;9352;50.888;4.466;2024-01-07T11:52:09;38.22;;;16.33;;
18445;SDS011;9352;50.888;4.466;2024-01-07T11:54:36;31.60;;;14.02;;
18445;SDS011;9352;50.888;4.466;2024-01-07T11:57:04;38.92;;;17.63;;
18445;SDS011;9352;50.888;4.466;2024-01-07T11:59:31;41.70;;;17.67;;
18445;SDS011;9352;50.888;4.466;2024-01-07T12:02:00;36.15;;;16.40;;
18445;SDS011;9352;50.888;4.466;2024-01-07T12:04:29;30.83;;;15.35;;
18445;SDS011;9352;50.888;4.466;2024-01-07T12:06:56;28.95;;;13.85;;
18445;SDS011;9352;50.888;4.466;2024-01-07T12:09:23;34.20;;;15.77;;
18445;SDS011;9352;50.888;4.466;2024-01-07T12:11:50;39.55;;;18.13;;
18445;SDS011;9352;50.888;4.466;2024-01-07T12:14:18;27.67;;;14.47;;
18445;SDS011;9352;50.888;4.466;2024-01-07T12:16:45;43.47;;;17.13;;
18445;SDS011;9352;50.888;4.466;2024-01-07T12:19:14;47.60;;;17.63;;
18445;SDS011;9352;50.888;4.466;2024-01-07T12:21:41;70.25;;;21.55;;
18445;SDS011;9352;50.888;4.466;2024-01-07T12:24:08;47.85;;;17.42;;
18445;SDS011;9352;50.888;4.466;2024-01-07T12:26:34;37.63;;;15.57;;
18445;SDS011;9352;50.888;4.466;2024-01-07T12:29:02;39.37;;;15.83;;
18445;SDS011;9352;50.888;4.466;2024-01-07T12:31:31;34.23;;;14.43;;
18445;SDS011;9352;50.888;4.466;2024-01-07T12:33:59;33.22;;;15.13;;
18445;SDS011;9352;50.888;4.466;2024-01-07T12:36:29;35.13;;;14.38;;
18445;SDS011;9352;50.888;4.466;2024-01-07T12:38:57;60.80;;;20.77;;
18445;SDS011;9352;50.888;4.466;2024-01-07T12:41:24;71.38;;;23.83;;
18445;SDS011;9352;50.888;4.466;2024-01-07T12:43:51;39.80;;;16.00;;
18445;SDS011;9352;50.888;4.466;2024-01-07T12:46:18;40.75;;;16.42;;
18445;SDS011;9352;50.888;4.466;2024-01-07T12:48:45;42.17;;;17.53;;
18445;SDS011;9352;50.888;4.466;2024-01-07T12:51:12;51.27;;;19.97;;
18445;SDS011;9352;50.888;4.466;2024-01-07T12:53:40;47.43;;;21.03;;
18445;SDS011;9352;50.888;4.466;2024-01-07T12:56:08;35.35;;;14.80;;
18445;SDS011;9352;50.888;4.466;2024-01-07T12:58:35;36.53;;;16.50;;
18445;SDS011;9352;50.888;4.466;2024-01-07T13:01:02;35.55;;;17.13;;
18445;SDS011;9352;50.888;4.466;2024-01-07T13:03:29;28.77;;;13.20;;
18445;SDS011;9352;50.888;4.466;2024-01-07T13:05:56;28.05;;;13.60;;
18445;SDS011;9352;50.888;4.466;2024-01-07T13:08:23;28.38;;;14.32;;
18445;SDS011;9352;50.888;4.466;2024-01-07T13:10:53;31.13;;;14.67;;
18445;SDS011;9352;50.888;4.466;2024-01-07T13:13:21;30.70;;;15.30;;
18445;SDS011;9352;50.888;4.466;2024-01-07T13:15:47;31.98;;;14.63;;
18445;SDS011;9352;50.888;4.466;2024-01-07T13:18:15;38.38;;;18.05;;
18445;SDS011;9352;50.888;4.466;2024-01-07T13:20:43;32.43;;;14.57;;
18445;SDS011;9352;50.888;4.466;2024-01-07T13:23:10;38.10;;;16.23;;
18445;SDS011;9352;50.888;4.466;2024-01-07T13:25:36;33.03;;;14.52;;
18445;SDS011;9352;50.888;4.466;2024-01-07T13:28:05;34.35;;;14.68;;
18445;SDS011;9352;50.888;4.466;2024-01-07T13:30:35;39.97;;;17.00;;
18445;SDS011;9352;50.888;4.466;2024-01-07T13:33:03;38.60;;;15.97;;
18445;SDS011;9352;50.888;4.466;2024-01-07T13:35:30;34.20;;;15.17;;
18445;SDS011;9352;50.888;4.466;2024-01-07T13:37:57;37.67;;;15.18;;
18445;SDS011;9352;50.888;4.466;2024-01-07T13:40:24;29.65;;;13.60;;
18445;SDS011;9352;50.888;4.466;2024-01-07T13:42:52;33.67;;;14.95;;
18445;SDS011;9352;50.888;4.466;2024-01-07T13:45:20;32.73;;;13.93;;
18445;SDS011;9352;50.888;4.466;2024-01-07T13:47:48;29.63;;;13.73;;
18445;SDS011;9352;50.888;4.466;2024-01-07T13:50:15;26.48;;;13.43;;
18445;SDS011;9352;50.888;4.466;2024-01-07T13:52:42;27.30;;;12.30;;
18445;SDS011;9352;50.888;4.466;2024-01-07T13:55:09;24.00;;;12.27;;
18445;SDS011;9352;50.888;4.466;2024-01-07T13:57:37;27.92;;;13.55;;
18445;SDS011;9352;50.888;4.466;2024-01-07T14:00:04;22.08;;;12.38;;
18445;SDS011;9352;50.888;4.466;2024-01-07T14:02:36;27.42;;;12.60;;
18445;SDS011;9352;50.888;4.466;2024-01-07T14:05:04;20.02;;;11.40;;
18445;SDS011;9352;50.888;4.466;2024-01-07T14:07:33;18.77;;;11.13;;
18445;SDS011;9352;50.888;4.466;2024-01-07T14:10:00;22.17;;;11.90;;
18445;SDS011;9352;50.888;4.466;2024-01-07T14:12:29;68.95;;;24.15;;
18445;SDS011;9352;50.888;4.466;2024-01-07T14:14:56;97.70;;;32.55;;
18445;SDS011;9352;50.888;4.466;2024-01-07T14:17:23;32.28;;;15.18;;
18445;SDS011;9352;50.888;4.466;2024-01-07T14:19:52;42.97;;;19.85;;
18445;SDS011;9352;50.888;4.466;2024-01-07T14:22:19;38.72;;;18.67;;
18445;SDS011;9352;50.888;4.466;2024-01-07T14:24:46;22.17;;;11.82;;
18445;SDS011;9352;50.888;4.466;2024-01-07T14:27:13;29.10;;;15.63;;
18445;SDS011;9352;50.888;4.466;2024-01-07T14:29:40;22.13;;;12.98;;
18445;SDS011;9352;50.888;4.466;2024-01-07T14:32:08;21.40;;;12.45;;
18445;SDS011;9352;50.888;4.466;2024-01-07T14:34:37;25.25;;;13.98;;
18445;SDS011;9352;50.888;4.466;2024-01-07T14:37:06;22.65;;;12.75;;